Time;durP1;ratioP1;P1;durP2;ratioP2;P2;SDS_P1;SDS_P2;PMS_P1;PMS_P2;Temp;Humidity;BMP_temperature;BMP_pressure;BME280_temperature;BME280_humidity;BME280_pressure;Samples;Min_cycle;Max_cycle;Signal;HPM_P1;HPM_P2
2020/12/14 00:01:26;;;;;;;2.15;1.10;;;18.70;42.20;;;;;;5072656;28;20025;-49
2020/12/14 00:03:52;;;;;;;1.90;0.93;;;18.70;42.20;;;;;;5070515;28;20546;-50
2020/12/14 00:06:18;;;;;;;1.52;1.17;;;18.60;42.20;;;;;;5070915;28;20385;-50
2020/12/14 00:08:43;;;;;;;1.67;0.77;;;18.60;42.10;;;;;;5062869;28;20047;-50
2020/12/14 00:11:09;;;;;;;1.88;0.70;;;18.60;42.20;;;;;;5069687;28;20508;-50
2020/12/14 00:13:34;;;;;;;4.00;0.98;;;18.60;42.10;;;;;;5066067;28;20503;-49
2020/12/14 00:16:00;;;;;;;1.98;0.98;;;18.60;42.10;;;;;;5070596;28;20024;-50
2020/12/14 00:18:25;;;;;;;1.30;1.00;;;18.60;42.10;;;;;;5070587;28;20033;-50
2020/12/14 00:20:51;;;;;;;1.20;0.60;;;18.60;42.10;;;;;;5070406;28;20104;-49
2020/12/14 00:23:16;;;;;;;1.40;0.77;;;18.60;42.10;;;;;;5066857;28;20055;-50
2020/12/14 00:25:42;;;;;;;1.70;0.90;;;18.60;42.10;;;;;;5069857;28;20074;-50
2020/12/14 00:28:07;;;;;;;2.50;0.80;;;18.60;42.20;;;;;;5070287;28;20520;-50
2020/12/14 00:30:33;;;;;;;1.92;0.98;;;18.60;42.20;;;;;;5063933;28;20032;-50
2020/12/14 00:32:58;;;;;;;3.50;0.82;;;18.60;42.10;;;;;;5070095;28;20038;-50
2020/12/14 00:35:24;;;;;;;3.67;0.70;;;18.60;42.10;;;;;;5063587;28;20029;-50
2020/12/14 00:37:49;;;;;;;1.55;0.60;;;18.60;42.10;;;;;;5070638;28;20056;-49
2020/12/14 00:40:15;;;;;;;2.05;0.60;;;18.60;42.10;;;;;;5065196;28;20029;-50
2020/12/14 00:42:44;;;;;;;1.13;0.70;;;18.60;42.10;;;;;;5054726;28;20120;-50
2020/12/14 00:45:09;;;;;;;2.58;0.98;;;18.50;42.10;;;;;;5052462;28;20084;-50
2020/12/14 00:47:35;;;;;;;1.20;0.80;;;18.60;42.10;;;;;;5067835;28;20174;-50
2020/12/14 00:50:01;;;;;;;1.40;0.50;;;18.60;42.10;;;;;;5058462;28;20036;-50
2020/12/14 00:52:27;;;;;;;2.25;0.70;;;18.50;42.00;;;;;;5059977;28;20040;-50
2020/12/14 00:54:52;;;;;;;1.08;0.57;;;18.50;42.00;;;;;;5064229;28;20032;-50
2020/12/14 00:57:18;;;;;;;1.63;0.80;;;18.50;42.00;;;;;;5051558;28;20028;-50
2020/12/14 00:59:43;;;;;;;1.30;0.60;;;18.50;42.00;;;;;;5070224;28;20037;-50
2020/12/14 01:02:09;;;;;;;2.08;0.70;;;18.50;42.00;;;;;;5069018;28;20025;-50
2020/12/14 01:04:34;;;;;;;1.48;0.55;;;18.50;42.10;;;;;;5070554;28;20036;-50
2020/12/14 01:07:00;;;;;;;1.25;0.70;;;18.50;42.00;;;;;;5063654;28;20028;-50
2020/12/14 01:09:25;;;;;;;1.67;0.57;;;18.50;42.10;;;;;;5069320;28;20032;-50
2020/12/14 01:11:51;;;;;;;0.70;0.40;;;18.50;42.00;;;;;;5062146;28;20029;-50
2020/12/14 01:14:17;;;;;;;1.13;0.43;;;18.50;42.00;;;;;;5069010;28;20108;-49
2020/12/14 01:16:42;;;;;;;1.15;0.38;;;18.50;42.00;;;;;;5062744;28;20386;-50
2020/12/14 01:19:08;;;;;;;1.40;0.30;;;18.50;42.00;;;;;;5069926;28;20060;-50
2020/12/14 01:21:33;;;;;;;0.80;0.40;;;18.50;42.00;;;;;;5064079;28;20029;-49
2020/12/14 01:23:59;;;;;;;1.23;0.35;;;18.50;42.00;;;;;;5067808;28;20445;-50
2020/12/14 01:26:24;;;;;;;1.67;0.40;;;18.50;42.00;;;;;;5061319;28;20099;-50
2020/12/14 01:28:50;;;;;;;1.10;0.35;;;18.50;42.00;;;;;;5062966;28;20029;-50
2020/12/14 01:31:15;;;;;;;1.58;0.50;;;18.50;41.90;;;;;;5062953;28;20059;-49
2020/12/14 01:33:41;;;;;;;0.90;0.40;;;18.40;41.90;;;;;;5067709;28;20111;-50
2020/12/14 01:36:07;;;;;;;1.20;0.45;;;18.40;41.90;;;;;;5065290;28;20041;-50
2020/12/14 01:38:33;;;;;;;1.55;0.60;;;18.40;41.90;;;;;;5063026;28;20060;-50
2020/12/14 01:40:58;;;;;;;0.90;0.40;;;18.40;41.90;;;;;;5059599;28;20067;-50
2020/12/14 01:43:25;;;;;;;0.80;0.50;;;18.40;41.90;;;;;;5069107;28;20041;-50
2020/12/14 01:45:51;;;;;;;1.20;0.40;;;18.50;42.00;;;;;;5062476;28;20060;-50
2020/12/14 01:48:17;;;;;;;0.77;0.30;;;18.40;41.90;;;;;;5067416;28;20036;-50
2020/12/14 01:50:43;;;;;;;0.60;0.30;;;18.40;41.90;;;;;;5066286;28;20116;-49
2020/12/14 01:53:11;;;;;;;0.90;0.30;;;18.40;41.80;;;;;;5051335;28;20146;-50
2020/12/14 01:55:40;;;;;;;0.73;0.30;;;18.40;41.90;;;;;;5050150;28;20043;-49
2020/12/14 01:58:06;;;;;;;0.80;0.30;;;18.40;41.80;;;;;;5069370;28;20711;-50
2020/12/14 02:00:32;;;;;;;0.80;0.38;;;18.40;41.80;;;;;;5068324;28;20174;-50
2020/12/14 02:02:57;;;;;;;0.85;0.20;;;18.40;41.80;;;;;;5067712;28;20104;-50
2020/12/14 02:05:23;;;;;;;1.00;0.40;;;18.40;41.80;;;;;;5067120;28;20104;-50
2020/12/14 02:07:48;;;;;;;1.30;0.20;;;18.40;41.80;;;;;;5069243;28;20033;-49
2020/12/14 02:10:14;;;;;;;0.65;0.40;;;18.40;41.80;;;;;;5061280;28;20029;-50
2020/12/14 02:12:40;;;;;;;2.00;0.20;;;18.40;41.80;;;;;;5068394;28;20054;-50
2020/12/14 02:15:06;;;;;;;2.13;0.28;;;18.40;41.80;;;;;;5065624;28;20048;-50
2020/12/14 02:17:32;;;;;;;0.80;0.30;;;18.40;41.90;;;;;;5067881;28;20107;-50
2020/12/14 02:19:57;;;;;;;1.67;0.40;;;18.40;41.80;;;;;;5065269;28;20182;-50
2020/12/14 02:22:25;;;;;;;1.98;0.20;;;18.40;41.80;;;;;;5069225;28;20039;-50
2020/12/14 02:24:59;;;;;;;0.50;0.20;;;18.40;41.80;;;;;;5070219;28;20036;-50
2020/12/14 02:27:27;;;;;;;1.88;0.30;;;18.30;41.80;;;;;;5054056;28;20036;-49
2020/12/14 02:29:53;;;;;;;1.05;0.45;;;18.30;41.80;;;;;;5070190;28;20042;-50
2020/12/14 02:32:20;;;;;;;0.60;0.20;;;18.30;41.70;;;;;;5070693;28;20037;-50
2020/12/14 02:34:47;;;;;;;0.80;0.38;;;18.30;41.70;;;;;;5072045;28;20115;-50
2020/12/14 02:37:15;;;;;;;0.80;0.38;;;18.30;41.70;;;;;;5072525;28;20056;-50
2020/12/14 02:39:41;;;;;;;0.70;0.40;;;18.30;41.70;;;;;;5072563;28;20542;-50
2020/12/14 02:42:08;;;;;;;0.70;0.20;;;18.30;41.70;;;;;;5067114;28;20037;-50
2020/12/14 02:44:34;;;;;;;0.93;0.20;;;18.30;41.70;;;;;;5072742;28;20061;-48
2020/12/14 02:47:00;;;;;;;0.80;0.30;;;18.30;41.70;;;;;;5069603;28;20039;-49
2020/12/14 02:49:25;;;;;;;0.70;0.10;;;18.30;41.70;;;;;;5073140;28;20123;-49
2020/12/14 02:51:51;;;;;;;0.52;0.20;;;18.40;41.70;;;;;;5065236;28;20107;-49
2020/12/14 02:54:16;;;;;;;2.05;0.20;;;18.40;41.70;;;;;;5069352;28;20043;-48
2020/12/14 02:56:43;;;;;;;0.60;0.20;;;18.30;41.60;;;;;;5070880;28;20031;-49
2020/12/14 02:59:13;;;;;;;0.60;0.20;;;18.40;41.70;;;;;;5050019;28;20088;-49
2020/12/14 03:01:39;;;;;;;0.75;0.20;;;18.30;41.60;;;;;;5070894;28;20033;-49
2020/12/14 03:04:05;;;;;;;0.75;0.30;;;18.40;41.70;;;;;;5066518;28;20028;-48
2020/12/14 03:06:31;;;;;;;0.77;0.20;;;18.40;41.70;;;;;;5070007;28;20029;-49
2020/12/14 03:08:57;;;;;;;0.40;0.10;;;18.40;41.70;;;;;;5045166;28;20397;-49
2020/12/14 03:11:23;;;;;;;0.68;0.20;;;18.30;41.60;;;;;;5069771;28;20028;-49
2020/12/14 03:13:49;;;;;;;1.10;0.10;;;18.40;41.60;;;;;;5072130;28;20044;-49
2020/12/14 03:16:15;;;;;;;0.65;0.13;;;18.40;41.60;;;;;;5070619;28;20035;-50
2020/12/14 03:18:40;;;;;;;0.50;0.20;;;18.30;41.60;;;;;;5057630;28;20103;-49
2020/12/14 03:21:07;;;;;;;0.43;0.10;;;18.30;41.60;;;;;;5071157;28;20630;-49
2020/12/14 03:23:33;;;;;;;0.73;0.13;;;18.40;41.60;;;;;;5071658;28;20108;-49
2020/12/14 03:25:59;;;;;;;0.80;0.20;;;18.40;41.60;;;;;;5066166;28;20146;-49
2020/12/14 03:28:24;;;;;;;0.60;0.20;;;18.30;41.60;;;;;;5071894;28;20482;-49
2020/12/14 03:30:50;;;;;;;0.88;0.20;;;18.40;41.60;;;;;;5066169;28;20024;-49
2020/12/14 03:33:16;;;;;;;0.40;0.20;;;18.30;41.60;;;;;;5070900;28;20028;-49
2020/12/14 03:35:41;;;;;;;0.57;0.17;;;18.40;41.60;;;;;;5067332;28;20100;-49
2020/12/14 03:38:07;;;;;;;0.95;0.25;;;18.40;41.60;;;;;;5071612;28;20117;-50
2020/12/14 03:40:33;;;;;;;0.40;0.10;;;18.30;41.60;;;;;;5069169;28;20063;-49
2020/12/14 03:42:58;;;;;;;0.30;0.10;;;18.40;41.60;;;;;;5044384;28;20074;-49
2020/12/14 03:45:24;;;;;;;1.17;0.30;;;18.30;41.60;;;;;;5065602;28;20051;-49
2020/12/14 03:47:50;;;;;;;0.50;0.10;;;18.30;41.60;;;;;;5071591;28;20032;-49
2020/12/14 03:50:15;;;;;;;0.75;0.20;;;18.30;41.60;;;;;;5067232;28;20043;-49
2020/12/14 03:52:41;;;;;;;0.52;0.13;;;18.30;41.60;;;;;;5050920;28;20016;-49
2020/12/14 03:55:06;;;;;;;0.65;0.10;;;18.30;41.50;;;;;;5067823;28;20043;-49
2020/12/14 03:57:32;;;;;;;0.55;0.13;;;18.30;41.60;;;;;;5070117;28;20039;-49
2020/12/14 03:59:57;;;;;;;0.75;0.15;;;18.30;41.60;;;;;;5070903;28;20052;-50
2020/12/14 04:02:23;;;;;;;0.57;0.10;;;18.30;41.60;;;;;;5071479;28;20110;-50
2020/12/14 04:04:49;;;;;;;0.80;0.17;;;18.30;41.60;;;;;;5068341;28;20091;-49
2020/12/14 04:07:15;;;;;;;0.77;0.10;;;18.30;41.60;;;;;;5069786;28;20048;-49
2020/12/14 04:09:41;;;;;;;0.50;0.10;;;18.30;41.60;;;;;;5063380;28;20033;-49
2020/12/14 04:12:07;;;;;;;0.73;0.20;;;18.30;41.60;;;;;;5047184;28;20029;-50
2020/12/14 04:14:32;;;;;;;0.40;0.10;;;18.30;41.60;;;;;;5061901;28;20036;-49
2020/12/14 04:16:58;;;;;;;1.38;0.20;;;18.30;41.60;;;;;;5065442;28;20033;-49
2020/12/14 04:19:23;;;;;;;0.38;0.13;;;18.30;41.60;;;;;;5064431;28;20381;-50
2020/12/14 04:21:53;;;;;;;0.50;0.20;;;18.30;41.60;;;;;;5067702;28;20036;-49
2020/12/14 04:24:18;;;;;;;0.95;0.10;;;18.20;41.50;;;;;;5067375;28;20029;-49
2020/12/14 04:26:44;;;;;;;0.50;0.20;;;18.20;41.60;;;;;;5063019;28;20598;-50
2020/12/14 04:29:10;;;;;;;0.63;0.17;;;18.20;41.60;;;;;;5066528;28;20047;-49
2020/12/14 04:31:35;;;;;;;0.38;0.17;;;18.20;41.50;;;;;;5051005;28;20086;-49
2020/12/14 04:34:02;;;;;;;0.73;0.10;;;18.20;41.50;;;;;;5063600;28;20060;-49
2020/12/14 04:36:29;;;;;;;0.28;0.10;;;18.20;41.50;;;;;;5069490;28;20052;-50
2020/12/14 04:38:55;;;;;;;0.52;0.15;;;18.20;41.60;;;;;;5083103;22;20102;-46
2020/12/14 04:41:22;;;;;;;0.50;0.10;;;18.20;41.60;;;;;;5063416;28;20028;-45
2020/12/14 04:43:50;;;;;;;0.50;0.20;;;18.20;41.60;;;;;;5066802;28;20024;-47
2020/12/14 04:46:18;;;;;;;0.68;0.10;;;18.20;41.60;;;;;;5067189;28;20021;-47
2020/12/14 04:48:44;;;;;;;0.47;0.10;;;18.20;41.60;;;;;;5060854;28;20461;-44
2020/12/14 04:51:10;;;;;;;0.70;0.10;;;18.20;41.60;;;;;;5048300;28;20025;-45
2020/12/14 04:53:40;;;;;;;0.65;0.20;;;18.20;41.60;;;;;;5047331;28;20040;-43
2020/12/14 04:56:08;;;;;;;0.47;0.10;;;18.20;41.60;;;;;;5046858;28;20639;-43
2020/12/14 04:58:33;;;;;;;0.45;0.10;;;18.20;41.50;;;;;;5045617;28;20029;-43
2020/12/14 05:00:59;;;;;;;0.52;0.10;;;18.20;41.60;;;;;;5047519;28;20052;-44
2020/12/14 05:03:24;;;;;;;0.32;0.10;;;18.10;41.50;;;;;;5040897;28;20029;-47
2020/12/14 05:05:56;;;;;;;0.55;0.10;;;18.20;41.60;;;;;;5046668;28;20044;-44
2020/12/14 05:08:26;;;;;;;1.13;0.17;;;18.20;41.60;;;;;;5044485;28;20033;-43
2020/12/14 05:10:53;;;;;;;0.75;0.10;;;18.20;41.60;;;;;;5042919;28;20040;-46
2020/12/14 05:13:19;;;;;;;0.50;0.10;;;18.20;41.60;;;;;;5042665;28;20057;-43
2020/12/14 05:15:44;;;;;;;0.82;0.10;;;18.10;41.60;;;;;;5047766;28;20477;-46
2020/12/14 05:18:11;;;;;;;0.55;0.10;;;18.20;41.60;;;;;;5017415;28;20039;-44
2020/12/14 05:20:37;;;;;;;0.38;0.10;;;18.10;41.60;;;;;;5048629;28;20021;-44
2020/12/14 05:23:04;;;;;;;0.50;0.10;;;18.10;41.50;;;;;;5027576;28;20022;-45
2020/12/14 05:25:30;;;;;;;0.90;0.20;;;18.10;41.50;;;;;;5046073;28;20521;-47
2020/12/14 05:28:04;;;;;;;0.25;0.10;;;18.10;41.60;;;;;;5043541;28;20024;-48
2020/12/14 05:30:37;;;;;;;0.50;0.10;;;18.10;41.60;;;;;;5045191;28;20033;-45
2020/12/14 05:33:04;;;;;;;0.60;0.10;;;18.10;41.60;;;;;;5047791;28;20029;-45
2020/12/14 05:35:32;;;;;;;0.30;0.10;;;18.10;41.50;;;;;;5047760;28;20041;-41
2020/12/14 05:38:19;;;;;;;0.50;0.10;;;18.10;41.50;;;;;;5030111;28;20025;-45
2020/12/14 05:40:47;;;;;;;0.77;0.10;;;18.10;41.50;;;;;;5046660;28;20032;-47
2020/12/14 05:43:15;;;;;;;0.40;0.10;;;18.10;41.60;;;;;;5046380;28;20378;-44
2020/12/14 05:45:43;;;;;;;0.40;0.10;;;18.10;41.60;;;;;;5023027;28;20029;-45
2020/12/14 05:48:32;;;;;;;0.47;0.10;;;18.10;41.60;;;;;;5046052;28;20029;-45
2020/12/14 05:51:02;;;;;;;0.30;0.03;;;18.10;41.50;;;;;;5050308;28;20024;-48
2020/12/14 05:53:55;;;;;;;0.30;0.00;;;18.10;41.50;;;;;;5047827;28;20033;-46
2020/12/14 05:56:24;;;;;;;0.20;0.10;;;18.10;41.50;;;;;;5050476;28;20059;-48
2020/12/14 05:58:55;;;;;;;0.40;0.10;;;18.00;41.50;;;;;;5055192;28;20029;-49
2020/12/14 06:01:21;;;;;;;0.52;0.10;;;18.10;42.00;;;;;;5053810;28;20021;-49
2020/12/14 06:03:48;;;;;;;0.30;0.08;;;18.10;41.40;;;;;;5052699;28;20029;-45
2020/12/14 06:06:15;;;;;;;0.40;0.10;;;18.20;41.30;;;;;;5052880;28;20028;-45
2020/12/14 06:08:47;;;;;;;0.30;0.10;;;18.30;41.20;;;;;;5052302;28;20826;-46
2020/12/14 06:11:16;;;;;;;0.40;0.10;;;18.50;41.00;;;;;;5033698;28;20045;-45
2020/12/14 06:13:56;;;;;;;0.20;0.00;;;18.50;40.80;;;;;;5043077;28;20043;-46
2020/12/14 06:16:24;;;;;;;0.30;0.00;;;18.60;40.60;;;;;;5050832;28;20055;-46
2020/12/14 06:18:51;;;;;;;0.13;0.00;;;18.80;40.50;;;;;;5044396;28;20029;-45
2020/12/14 06:21:44;;;;;;;0.10;0.00;;;18.80;40.30;;;;;;5029754;28;20102;-45
2020/12/14 06:24:24;;;;;;;0.38;0.00;;;18.90;40.20;;;;;;5033828;28;20025;-46
2020/12/14 06:26:50;;;;;;;0.20;0.10;;;19.00;40.10;;;;;;5042496;28;20063;-48
2020/12/14 06:29:33;;;;;;;0.20;0.10;;;19.00;40.10;;;;;;5044698;28;20371;-45
2020/12/14 06:31:59;;;;;;;0.40;0.10;;;19.10;40.00;;;;;;5029391;28;20111;-45
2020/12/14 06:34:31;;;;;;;0.32;0.10;;;19.10;40.00;;;;;;5047666;28;20032;-43
2020/12/14 06:36:57;;;;;;;0.20;0.00;;;19.10;40.00;;;;;;5030337;28;20051;-44
2020/12/14 06:39:27;;;;;;;0.10;0.00;;;19.20;40.00;;;;;;5048310;28;20025;-46
2020/12/14 06:42:13;;;;;;;1.95;0.10;;;19.20;40.10;;;;;;5048625;28;20029;-47
2020/12/14 06:44:45;;;;;;;0.73;0.10;;;19.20;40.00;;;;;;5022523;28;20489;-47
2020/12/14 06:47:13;;;;;;;0.50;0.00;;;19.30;40.00;;;;;;5049214;28;20060;-46
2020/12/14 06:49:38;;;;;;;0.88;0.10;;;19.30;40.00;;;;;;5044133;28;20524;-47
2020/12/14 06:52:04;;;;;;;0.30;0.00;;;19.40;39.90;;;;;;5048366;28;20033;-46
2020/12/14 06:54:46;;;;;;;0.03;0.00;;;19.40;39.80;;;;;;5033517;28;20033;-46
2020/12/14 06:57:14;;;;;;;0.20;0.00;;;19.50;39.80;;;;;;5042930;28;20029;-44
2020/12/14 06:59:39;;;;;;;0.40;0.00;;;19.50;39.70;;;;;;5050709;28;20032;-45
2020/12/14 07:02:07;;;;;;;0.30;0.10;;;19.50;39.70;;;;;;5043590;28;20033;-44
2020/12/14 07:04:33;;;;;;;0.10;0.00;;;19.50;39.70;;;;;;5040147;28;20452;-45
2020/12/14 07:07:04;;;;;;;0.20;0.00;;;19.60;39.70;;;;;;5028528;28;20033;-47
2020/12/14 07:09:35;;;;;;;0.70;0.10;;;19.50;39.80;;;;;;5050055;28;20047;-43
2020/12/14 07:12:09;;;;;;;0.80;0.20;;;19.50;40.00;;;;;;5050372;28;20508;-50
2020/12/14 07:14:48;;;;;;;0.35;0.10;;;19.50;40.00;;;;;;5049439;28;20040;-45
2020/12/14 07:17:23;;;;;;;0.25;0.10;;;19.60;39.80;;;;;;5049921;28;20025;-44
2020/12/14 07:19:50;;;;;;;0.20;0.00;;;19.60;39.80;;;;;;5050325;28;20025;-46
2020/12/14 07:22:22;;;;;;;0.10;0.00;;;19.70;39.80;;;;;;5050188;28;20029;-45
2020/12/14 07:25:04;;;;;;;0.40;0.10;;;19.70;39.80;;;;;;5051932;28;20486;-46
2020/12/14 07:27:31;;;;;;;0.10;0.00;;;19.70;39.80;;;;;;5044858;28;20112;-45
2020/12/14 07:30:07;;;;;;;0.30;0.10;;;19.60;39.90;;;;;;5048217;28;20485;-46
2020/12/14 07:32:33;;;;;;;0.13;0.00;;;19.70;40.00;;;;;;5042514;28;20040;-43
2020/12/14 07:34:59;;;;;;;0.47;0.10;;;19.60;39.90;;;;;;5024995;28;20028;-43
2020/12/14 07:37:25;;;;;;;0.30;0.10;;;19.60;40.00;;;;;;5044074;28;20063;-45
2020/12/14 07:39:51;;;;;;;0.20;0.00;;;19.60;40.00;;;;;;5044701;28;20418;-48
2020/12/14 07:42:27;;;;;;;0.22;0.10;;;19.60;40.10;;;;;;5047018;28;20037;-45
2020/12/14 07:45:09;;;;;;;0.38;0.10;;;19.60;40.20;;;;;;5046226;28;20032;-47
2020/12/14 07:47:35;;;;;;;0.32;0.10;;;19.60;40.20;;;;;;5042496;28;20052;-47
2020/12/14 07:50:14;;;;;;;0.82;0.00;;;19.50;40.30;;;;;;5043152;28;20033;-47
2020/12/14 07:52:41;;;;;;;0.30;0.00;;;19.50;40.40;;;;;;5040905;28;20033;-47
2020/12/14 07:55:09;;;;;;;0.45;0.00;;;19.40;40.50;;;;;;5040944;28;20032;-46
2020/12/14 07:57:37;;;;;;;0.40;0.05;;;19.40;40.60;;;;;;5048152;28;20025;-45
2020/12/14 08:00:16;;;;;;;0.45;0.10;;;19.40;40.70;;;;;;5047063;28;20067;-46
2020/12/14 08:02:43;;;;;;;0.50;0.17;;;19.50;40.80;;;;;;5022116;28;20025;-47
2020/12/14 08:05:14;;;;;;;0.75;0.20;;;19.40;40.90;;;;;;5041314;28;20036;-47
2020/12/14 08:07:49;;;;;;;0.40;0.10;;;19.30;40.90;;;;;;5047066;28;20032;-46
2020/12/14 08:10:15;;;;;;;0.88;0.10;;;19.30;41.10;;;;;;5043273;28;20037;-48
2020/12/14 08:12:44;;;;;;;0.30;0.10;;;19.30;41.10;;;;;;5051848;28;20060;-48
2020/12/14 08:15:17;;;;;;;0.85;0.13;;;19.30;41.10;;;;;;5050012;28;20071;-47
2020/12/14 08:17:44;;;;;;;0.32;0.08;;;19.40;40.90;;;;;;5047614;28;20033;-47
2020/12/14 08:20:33;;;;;;;0.40;0.10;;;19.50;40.70;;;;;;5046044;28;20142;-46
2020/12/14 08:23:00;;;;;;;0.70;0.20;;;19.60;40.50;;;;;;5049051;28;20092;-48
2020/12/14 08:25:28;;;;;;;0.45;0.10;;;19.70;40.40;;;;;;5047631;28;20131;-46
2020/12/14 08:28:00;;;;;;;0.60;0.10;;;19.70;40.30;;;;;;5027226;28;20029;-47
2020/12/14 08:30:26;;;;;;;0.73;0.10;;;19.80;40.30;;;;;;5042845;28;20430;-47
2020/12/14 08:33:15;;;;;;;0.40;0.10;;;19.80;40.20;;;;;;5049494;28;20469;-47
2020/12/14 08:35:52;;;;;;;0.30;0.10;;;19.90;40.20;;;;;;5042736;28;20040;-44
2020/12/14 08:38:27;;;;;;;0.25;0.10;;;19.90;40.30;;;;;;5038894;28;20082;-43
2020/12/14 08:41:04;;;;;;;0.30;0.10;;;19.90;40.30;;;;;;5047392;28;20032;-43
2020/12/14 08:43:33;;;;;;;0.30;0.10;;;20.00;40.40;;;;;;5048006;28;20112;-42
2020/12/14 08:46:09;;;;;;;0.60;0.10;;;20.20;40.40;;;;;;5046818;28;20534;-42
2020/12/14 08:48:45;;;;;;;0.50;0.10;;;20.20;40.30;;;;;;5041382;28;20068;-43
2020/12/14 08:51:22;;;;;;;0.43;0.10;;;20.30;40.70;;;;;;5028926;28;20574;-45
2020/12/14 08:53:50;;;;;;;0.35;0.10;;;20.30;40.30;;;;;;5045169;28;20059;-43
2020/12/14 08:56:17;;;;;;;2.25;0.10;;;20.40;40.40;;;;;;5042611;28;20071;-46
2020/12/14 08:58:48;;;;;;;0.40;0.10;;;20.40;40.50;;;;;;5047147;28;20060;-46
2020/12/14 09:01:14;;;;;;;0.50;0.10;;;20.40;40.60;;;;;;5043721;28;20029;-44
2020/12/14 09:03:47;;;;;;;1.02;0.20;;;20.40;40.60;;;;;;5044364;28;20025;-46
2020/12/14 09:06:34;;;;;;;0.65;0.20;;;20.40;40.80;;;;;;5046987;28;20060;-44
2020/12/14 09:09:00;;;;;;;0.25;0.10;;;20.40;41.00;;;;;;5041275;28;20061;-43
2020/12/14 09:11:28;;;;;;;0.35;0.10;;;20.40;41.00;;;;;;5036582;28;20598;-42
2020/12/14 09:13:58;;;;;;;0.40;0.10;;;20.40;41.00;;;;;;5044156;28;20072;-44
2020/12/14 09:16:24;;;;;;;0.20;0.10;;;20.40;41.00;;;;;;5043779;28;20037;-42
2020/12/14 09:18:50;;;;;;;0.30;0.10;;;20.40;41.10;;;;;;5046364;28;21696;-42
2020/12/14 09:21:16;;;;;;;0.40;0.10;;;20.40;41.10;;;;;;5046988;28;20036;-41
2020/12/14 09:23:42;;;;;;;0.25;0.10;;;20.40;41.10;;;;;;5044009;28;20112;-42
2020/12/14 09:26:07;;;;;;;0.45;0.10;;;20.40;41.30;;;;;;5042801;28;20123;-42
2020/12/14 09:28:34;;;;;;;0.77;0.10;;;20.30;41.30;;;;;;5046710;28;20060;-41
2020/12/14 09:31:01;;;;;;;0.50;0.10;;;20.30;41.50;;;;;;5039352;28;20091;-41
2020/12/14 09:33:26;;;;;;;0.30;0.10;;;20.30;41.50;;;;;;5046812;28;20391;-46
2020/12/14 09:35:52;;;;;;;0.68;0.10;;;20.30;41.60;;;;;;5045794;28;20036;-41
2020/12/14 09:38:18;;;;;;;0.40;0.10;;;20.30;41.80;;;;;;5044705;28;20059;-47
2020/12/14 09:40:44;;;;;;;0.35;0.10;;;20.20;41.50;;;;;;5043243;28;20061;-49
2020/12/14 09:43:09;;;;;;;0.80;0.10;;;20.20;41.70;;;;;;5045163;28;20060;-45
2020/12/14 09:45:35;;;;;;;0.52;0.10;;;20.20;41.80;;;;;;5046123;28;20405;-47
2020/12/14 09:48:00;;;;;;;0.20;0.10;;;20.10;41.90;;;;;;5041098;28;20068;-46
2020/12/14 09:50:27;;;;;;;0.47;0.20;;;20.10;42.00;;;;;;5044306;28;20072;-43
2020/12/14 09:52:52;;;;;;;0.55;0.10;;;20.00;42.00;;;;;;5045524;28;20437;-46
2020/12/14 09:55:18;;;;;;;1.92;0.20;;;20.10;42.10;;;;;;5043645;28;20041;-41
2020/12/14 09:57:43;;;;;;;0.40;0.10;;;20.10;42.00;;;;;;5038877;28;20039;-44
2020/12/14 10:00:09;;;;;;;1.02;0.10;;;20.00;42.20;;;;;;5041333;28;20033;-46
2020/12/14 10:02:35;;;;;;;0.20;0.10;;;20.00;42.20;;;;;;5042144;28;20474;-39
2020/12/14 10:05:01;;;;;;;0.55;0.10;;;19.90;42.30;;;;;;5044729;28;20037;-43
2020/12/14 10:07:26;;;;;;;0.93;0.10;;;20.00;42.30;;;;;;5045120;28;20033;-42
2020/12/14 10:09:52;;;;;;;1.35;0.10;;;20.10;42.20;;;;;;5052870;28;20406;-43
2020/12/14 10:12:17;;;;;;;0.50;0.15;;;20.10;42.30;;;;;;5047641;28;20583;-46
2020/12/14 10:14:43;;;;;;;0.90;0.10;;;20.10;42.50;;;;;;5045781;28;20663;-45
2020/12/14 10:17:09;;;;;;;3.60;0.17;;;20.10;42.40;;;;;;5049786;28;20067;-41
2020/12/14 10:19:35;;;;;;;0.30;0.10;;;20.00;42.30;;;;;;5048910;28;20088;-44
2020/12/14 10:22:00;;;;;;;0.45;0.13;;;20.00;42.50;;;;;;5047177;28;20120;-43
2020/12/14 10:24:26;;;;;;;1.10;0.20;;;20.00;42.50;;;;;;5045633;28;20052;-46
2020/12/14 10:26:52;;;;;;;0.50;0.10;;;20.10;42.50;;;;;;5040574;28;20029;-42
2020/12/14 10:29:17;;;;;;;0.47;0.10;;;20.10;42.40;;;;;;5045154;28;20032;-40
2020/12/14 10:31:47;;;;;;;0.95;0.20;;;20.20;42.30;;;;;;5042339;28;20036;-44
2020/12/14 10:34:13;;;;;;;0.57;0.10;;;20.30;42.10;;;;;;5039546;28;20037;-42
2020/12/14 10:36:44;;;;;;;0.20;0.10;;;20.40;42.00;;;;;;5038965;28;20048;-45
2020/12/14 10:39:09;;;;;;;0.95;0.20;;;20.50;41.90;;;;;;5046020;28;20556;-44
2020/12/14 10:41:35;;;;;;;0.60;0.10;;;20.60;41.70;;;;;;5044389;28;20064;-46
2020/12/14 10:44:00;;;;;;;0.25;0.03;;;20.70;41.70;;;;;;5029739;28;20036;-46
2020/12/14 10:46:26;;;;;;;0.50;0.10;;;20.60;41.70;;;;;;5044544;28;20041;-41
2020/12/14 10:48:52;;;;;;;0.30;0.10;;;20.60;41.70;;;;;;5049401;28;20037;-42
2020/12/14 10:51:17;;;;;;;1.98;0.20;;;20.70;41.70;;;;;;5059660;22;20049;-49
2020/12/14 10:53:43;;;;;;;2.35;0.10;;;20.80;41.50;;;;;;5064312;28;20024;-48
2020/12/14 10:56:08;;;;;;;0.40;0.10;;;20.70;41.70;;;;;;5063774;28;20397;-50
2020/12/14 10:58:34;;;;;;;0.40;0.10;;;20.70;41.70;;;;;;5070057;28;20412;-50
2020/12/14 11:00:59;;;;;;;0.65;0.17;;;20.70;41.70;;;;;;5065513;28;20781;-50
2020/12/14 11:03:25;;;;;;;0.90;0.20;;;20.80;41.80;;;;;;5069552;28;20474;-50
2020/12/14 11:05:54;;;;;;;0.52;0.10;;;20.80;41.70;;;;;;5052364;28;20084;-49
2020/12/14 11:08:21;;;;;;;0.57;0.10;;;20.90;41.80;;;;;;5072367;28;20037;-50
2020/12/14 11:10:48;;;;;;;0.50;0.10;;;20.80;41.60;;;;;;5066571;28;20485;-50
2020/12/14 11:13:13;;;;;;;0.30;0.00;;;20.90;41.70;;;;;;5069807;28;20027;-51
2020/12/14 11:15:39;;;;;;;1.05;0.25;;;20.90;41.70;;;;;;5069301;28;20036;-52
2020/12/14 11:18:04;;;;;;;0.32;0.10;;;21.00;41.70;;;;;;5067726;28;20032;-49
2020/12/14 11:20:31;;;;;;;0.20;0.10;;;21.00;41.60;;;;;;5069785;28;20059;-49
2020/12/14 11:22:56;;;;;;;0.52;0.10;;;21.00;41.60;;;;;;5070454;28;20104;-50
2020/12/14 11:25:22;;;;;;;0.65;0.10;;;21.10;41.60;;;;;;5065457;28;20771;-49
2020/12/14 11:27:47;;;;;;;0.30;0.03;;;21.10;41.60;;;;;;5066954;28;20112;-49
2020/12/14 11:30:13;;;;;;;0.45;0.10;;;21.20;41.70;;;;;;5062554;28;20033;-48
2020/12/14 11:32:39;;;;;;;0.50;0.10;;;21.20;41.60;;;;;;5070613;28;20682;-49
2020/12/14 11:35:04;;;;;;;0.32;0.10;;;21.20;41.60;;;;;;5070164;28;20036;-49
2020/12/14 11:37:30;;;;;;;0.50;0.10;;;21.30;41.60;;;;;;5069483;28;20478;-46
2020/12/14 11:39:56;;;;;;;0.15;0.00;;;21.30;41.50;;;;;;5070127;28;20024;-49
2020/12/14 11:42:21;;;;;;;0.30;0.10;;;21.30;41.50;;;;;;5058485;28;20036;-51
2020/12/14 11:44:47;;;;;;;0.35;0.10;;;21.30;41.50;;;;;;5069891;28;20066;-51
2020/12/14 11:47:12;;;;;;;0.77;0.10;;;21.30;41.40;;;;;;5069594;28;20028;-52
2020/12/14 11:49:40;;;;;;;1.75;0.25;;;21.30;41.40;;;;;;5063070;28;20028;-48
2020/12/14 11:52:07;;;;;;;1.30;0.10;;;21.30;41.40;;;;;;5045164;28;20131;-51
2020/12/14 11:54:32;;;;;;;1.20;0.10;;;21.20;41.70;;;;;;5068050;28;20028;-50
2020/12/14 11:56:58;;;;;;;0.45;0.10;;;21.20;41.70;;;;;;5066596;28;20025;-49
2020/12/14 11:59:24;;;;;;;1.63;0.10;;;21.20;41.80;;;;;;5067747;28;20024;-49
2020/12/14 12:01:50;;;;;;;0.30;0.10;;;21.20;41.90;;;;;;5065962;28;20025;-46
2020/12/14 12:04:16;;;;;;;1.05;0.10;;;21.20;42.00;;;;;;5067755;28;20107;-48
2020/12/14 12:06:41;;;;;;;1.55;0.10;;;21.10;42.00;;;;;;5065863;28;20731;-48
2020/12/14 12:09:07;;;;;;;0.35;0.10;;;21.10;42.10;;;;;;5068249;28;20037;-51
2020/12/14 12:11:36;;;;;;;0.28;0.10;;;21.10;42.20;;;;;;5066369;28;20033;-48
2020/12/14 12:14:01;;;;;;;0.30;0.10;;;21.00;42.30;;;;;;5069217;28;20037;-49
2020/12/14 12:16:27;;;;;;;0.28;0.10;;;21.00;42.30;;;;;;5069119;28;20539;-46
2020/12/14 12:18:52;;;;;;;0.35;0.10;;;21.00;42.40;;;;;;5069528;28;20522;-49
2020/12/14 12:21:18;;;;;;;0.55;0.10;;;21.00;42.50;;;;;;5068635;28;20037;-47
2020/12/14 12:23:44;;;;;;;1.00;0.15;;;21.00;42.50;;;;;;5067476;28;20028;-50
2020/12/14 12:26:10;;;;;;;0.63;0.10;;;21.00;42.50;;;;;;5051607;28;20036;-50
2020/12/14 12:28:35;;;;;;;0.60;0.10;;;21.00;42.60;;;;;;5061306;28;20071;-48
2020/12/14 12:31:01;;;;;;;0.50;0.10;;;21.00;43.20;;;;;;5068116;28;20063;-47
2020/12/14 12:33:27;;;;;;;1.00;0.10;;;21.00;42.70;;;;;;5065373;28;20036;-50
2020/12/14 12:35:52;;;;;;;0.60;0.10;;;20.90;42.70;;;;;;5069177;28;20484;-50
2020/12/14 12:38:18;;;;;;;0.20;0.10;;;21.00;42.70;;;;;;5062015;28;20108;-49
2020/12/14 12:40:43;;;;;;;0.50;0.10;;;21.10;42.50;;;;;;5066538;28;20040;-47
2020/12/14 12:43:09;;;;;;;0.38;0.10;;;21.20;42.40;;;;;;5063305;28;20078;-50
2020/12/14 12:45:34;;;;;;;0.85;0.10;;;21.30;42.10;;;;;;5066432;28;21121;-47
2020/12/14 12:48:00;;;;;;;0.60;0.10;;;21.40;42.10;;;;;;5062796;28;20036;-48
2020/12/14 12:50:25;;;;;;;0.30;0.10;;;21.50;42.10;;;;;;5060412;28;20025;-47